Lewis, New York
Current Conditions -  °F | °C
As of 4:54 PM on Monday 26 Jan 2015 (Local Time) from KBTV Reporting Station
Overcast Overcast  
Wind Chill: -3°   Ceiling: 12000
Heat Index: 10°   Visibility: 10mi
Dew Point: -1°   Wind: 9mph
Humidity: 61%   Direction: 320°NW
Pressure: 30.14"   Gusts: NA
Location:  44.27°N, 73.57°W
Report Text: KBTV 262154Z 32008KT 10SM OVC120 M12/M18 A3014 RMK AO2 SLP213 T11221183
Loading
Personal Weather Stations






























Interactive Weather Map New forecast layout! Learn more

10-Day Weather Forecast

Advertisements
Track Severe Weather on mobile